Airfield :







YOU CAN JOIN US ON...

 
LOGIN :

Register | Disclaimer

   EN    FR    IT 

 









Legend :    VFR   Marginal VFR   IFR   Intensive IFR   Very Intensive IFR
Visi :
Ceiling :
>= 8 km
>= 3000ft
5 to 8 km
1000 to 3000 ft
1500m to 5 km
500 to 1000 ft
800 to 1500m
200 to 500 ft
< 800m
< 200 ft
Symbols :   Thunderstorms  Fog  Heavy snow  Heavy precipitations  Wind > 20 kt







- Airport Elevation : 75 ft
- IATA code : YXP


CYXP - Pangnirtung

CURRENT METAR :
  • 181600Z 28004KT 15SM BKN210 M13/M18 A2992 RMK CI5 SLP136

EXPIRED METARs :
  • 181500Z 00000KT 15SM BKN210 M14/M19 A2993 RMK CI7 SLP141
  • 181400Z 25002KT 15SM FEW120 BKN210 M16/M21 A2995 RMK AC1CI5 AC TR SLP147

TAF TAF CYXP
Valid from the 18 at 13:00 until the 18 at 22:00 UTC


181238Z 1813/1822 14005KT P6SM SCT100 BKN250
FM181500 14005KT P6SM BKN040 BKN080
FM181900 14010KT P6SM -SN BKN030 OVC070
TEMPO 1819/1822 3SM -SN BKN015 OVC030 RMK NXT FCST BY 181900Z
CZEG FIR / North America



MET'MAP, your aeronautical weather chart ! - Copyright ORBIFLY December 2007 - Disclaimer

ORBIFLY MET'MAP TEAM :

Programming & Development : Alexandra Zaïnal
Concept & Development : Baudouin d'Aumeries
Co-Development & Prog : Marc-Olivier Méhu
Technical & hardware support : Manuel Goepfert

Contact : metmap@orbifly.com




SOURCES & CREDITS :

   NOAA